createdAt,value
2018-07-03T00:00:03.981Z,13.4
2018-07-03T00:00:24.140Z,13.3
2018-07-03T00:00:44.323Z,13.4
2018-07-03T00:01:04.487Z,13.3
2018-07-03T00:01:24.633Z,13.4
2018-07-03T00:01:44.792Z,13.4
2018-07-03T00:02:04.933Z,13.4
2018-07-03T00:02:25.082Z,13.3
2018-07-03T00:02:45.243Z,13.4
2018-07-03T00:03:05.424Z,13.3
2018-07-03T00:03:25.590Z,13.3
2018-07-03T00:03:45.732Z,13.3
2018-07-03T00:04:05.877Z,13.3
2018-07-03T00:04:26.112Z,13.3
2018-07-03T00:04:46.313Z,13.3
2018-07-03T00:05:06.476Z,13.3
2018-07-03T00:05:26.615Z,13.2
2018-07-03T00:05:46.806Z,13.2
2018-07-03T00:06:06.962Z,13.2
2018-07-03T00:06:27.109Z,13.3
2018-07-03T00:06:47.259Z,13.3
2018-07-03T00:07:07.424Z,13.3
2018-07-03T00:07:27.589Z,13.3
2018-07-03T00:07:47.749Z,13.3
2018-07-03T00:08:07.918Z,13.4
2018-07-03T00:08:28.079Z,13.4
2018-07-03T00:08:48.226Z,13.4
2018-07-03T00:09:08.374Z,13.4
2018-07-03T00:09:28.514Z,13.3
2018-07-03T00:09:48.667Z,13.4
2018-07-03T00:10:08.835Z,13.4
2018-07-03T00:10:29.005Z,13.3
2018-07-03T00:10:49.156Z,13.4
2018-07-03T00:11:09.292Z,13.3
2018-07-03T00:11:29.448Z,13.4
2018-07-03T00:11:49.607Z,13.3
2018-07-03T00:12:09.773Z,13.4
2018-07-03T00:12:29.899Z,13.3
2018-07-03T00:12:50.055Z,13.3
2018-07-03T00:13:10.218Z,13.4
2018-07-03T00:13:30.375Z,13.3
2018-07-03T00:13:50.534Z,13.3
2018-07-03T00:14:10.706Z,13.3
2018-07-03T00:14:30.858Z,13.3
2018-07-03T00:14:51.007Z,13.4
2018-07-03T00:15:11.167Z,13.4
2018-07-03T00:15:31.325Z,13.4
2018-07-03T00:15:51.501Z,13.3
2018-07-03T00:16:11.663Z,13.3
2018-07-03T00:16:31.815Z,13.3
2018-07-03T00:16:51.960Z,13.3
2018-07-03T00:17:12.115Z,13.3
2018-07-03T00:17:32.271Z,13.3
2018-07-03T00:17:52.425Z,13.3
2018-07-03T00:18:12.589Z,13.2
2018-07-03T00:18:32.753Z,13.3
2018-07-03T00:18:52.937Z,13.3
2018-07-03T00:19:13.067Z,13.2
2018-07-03T00:19:33.230Z,13.2
2018-07-03T00:19:53.389Z,13.3
2018-07-03T00:20:13.557Z,13.2
2018-07-03T00:20:33.721Z,13.1
2018-07-03T00:20:53.866Z,13.2
2018-07-03T00:21:14.030Z,13.2
2018-07-03T00:21:34.188Z,13.2
2018-07-03T00:21:54.327Z,13.1
2018-07-03T00:22:14.483Z,13.1
2018-07-03T00:22:34.630Z,13.2
2018-07-03T00:22:54.805Z,13.1
2018-07-03T00:23:14.951Z,13.1
2018-07-03T00:23:35.114Z,13.1
2018-07-03T00:23:55.323Z,13.1
2018-07-03T00:24:15.484Z,13.1
2018-07-03T00:24:35.657Z,13.1
2018-07-03T00:24:55.813Z,13.1
2018-07-03T00:25:15.967Z,13.1
2018-07-03T00:25:36.145Z,13
2018-07-03T00:25:56.310Z,13
2018-07-03T00:26:16.455Z,13.1
2018-07-03T00:26:36.606Z,13.1
2018-07-03T00:26:56.761Z,13.1
2018-07-03T00:27:16.896Z,13.1
2018-07-03T00:27:37.026Z,13
2018-07-03T00:27:57.197Z,13.1
2018-07-03T00:28:17.358Z,13.1
2018-07-03T00:28:37.507Z,13.1
2018-07-03T00:28:57.654Z,13.1
2018-07-03T00:29:17.800Z,13
2018-07-03T00:29:37.945Z,13.1
2018-07-03T00:29:58.092Z,13.1
2018-07-03T00:30:18.259Z,13
2018-07-03T00:30:38.426Z,13.1
2018-07-03T00:30:58.606Z,13.1
2018-07-03T00:31:18.781Z,13
2018-07-03T00:31:38.940Z,13
2018-07-03T00:31:59.116Z,13
2018-07-03T00:32:19.272Z,13
2018-07-03T00:32:39.428Z,13
2018-07-03T00:32:59.567Z,13
2018-07-03T00:33:19.729Z,13.1
2018-07-03T00:33:39.881Z,13
2018-07-03T00:34:00.020Z,13
2018-07-03T00:34:20.166Z,13
2018-07-03T00:34:40.326Z,13
2018-07-03T00:35:00.472Z,13
2018-07-03T00:35:20.608Z,13
2018-07-03T00:35:40.828Z,13
2018-07-03T00:36:00.988Z,13
2018-07-03T00:36:21.140Z,13
2018-07-03T00:36:41.298Z,13
2018-07-03T00:37:01.454Z,12.9
2018-07-03T00:37:21.613Z,13
2018-07-03T00:37:41.766Z,13
2018-07-03T00:38:01.896Z,12.9
2018-07-03T00:38:22.056Z,12.9
2018-07-03T00:38:42.214Z,12.9
2018-07-03T00:39:02.354Z,12.9
2018-07-03T00:39:22.501Z,13
2018-07-03T00:39:42.648Z,12.9
2018-07-03T00:40:02.792Z,12.9
2018-07-03T00:40:22.985Z,12.9
2018-07-03T00:40:43.136Z,12.9
2018-07-03T00:41:56.978Z,12.9
2018-07-03T00:42:23.417Z,12.9
2018-07-03T00:42:43.554Z,12.9
2018-07-03T00:43:03.713Z,12.9
2018-07-03T00:43:23.874Z,12.9
2018-07-03T00:43:44.030Z,12.9
2018-07-03T00:44:04.191Z,12.8
2018-07-03T00:44:24.348Z,12.9
2018-07-03T00:44:44.511Z,13
2018-07-03T00:45:04.659Z,12.9
2018-07-03T00:45:24.779Z,12.9
2018-07-03T00:45:44.937Z,12.8
2018-07-03T00:46:05.118Z,12.9
2018-07-03T00:46:25.267Z,12.9
2018-07-03T00:46:45.422Z,12.9
2018-07-03T00:47:05.610Z,12.8
2018-07-03T00:47:25.749Z,12.8
2018-07-03T00:47:45.911Z,12.8
2018-07-03T00:48:06.049Z,12.8
2018-07-03T00:48:26.197Z,12.9
2018-07-03T00:48:46.395Z,12.9
2018-07-03T00:49:06.549Z,12.8
2018-07-03T00:49:26.702Z,12.9
2018-07-03T00:49:46.857Z,12.8
2018-07-03T00:50:07.004Z,12.9
2018-07-03T00:50:27.158Z,12.8
2018-07-03T00:50:47.315Z,12.9
2018-07-03T00:51:07.476Z,12.8
2018-07-03T00:51:27.623Z,12.8
2018-07-03T00:51:47.753Z,12.8
2018-07-03T00:52:07.915Z,12.8
2018-07-03T00:52:28.049Z,12.8
2018-07-03T00:52:48.208Z,12.9
2018-07-03T00:53:08.348Z,12.9
2018-07-03T00:53:28.508Z,12.8
2018-07-03T00:53:48.663Z,12.8
2018-07-03T00:54:08.825Z,12.8
2018-07-03T00:54:28.957Z,12.7
2018-07-03T00:54:49.089Z,12.7
2018-07-03T00:55:09.270Z,12.8
2018-07-03T00:55:29.506Z,12.7
2018-07-03T00:55:49.606Z,12.9
2018-07-03T00:56:09.790Z,12.9
2018-07-03T00:56:29.917Z,12.8
2018-07-03T00:56:50.083Z,12.8
2018-07-03T00:57:10.225Z,12.8
2018-07-03T00:57:30.408Z,12.8
2018-07-03T00:57:50.535Z,12.8
2018-07-03T00:58:10.683Z,12.8
2018-07-03T00:58:30.847Z,12.8
2018-07-03T00:58:51.042Z,12.7
2018-07-03T00:59:11.230Z,12.7
2018-07-03T00:59:31.393Z,12.7
2018-07-03T00:59:51.535Z,12.7
2018-07-03T01:00:11.683Z,12.7
2018-07-03T01:00:31.859Z,12.7
2018-07-03T01:00:52.005Z,12.6
2018-07-03T01:01:12.178Z,12.7
2018-07-03T01:01:32.334Z,12.6
2018-07-03T01:01:52.486Z,12.7
2018-07-03T01:02:12.628Z,12.6
2018-07-03T01:02:32.779Z,12.5
2018-07-03T01:02:52.937Z,12.6
2018-07-03T01:03:13.083Z,12.5
2018-07-03T01:03:33.230Z,12.6
2018-07-03T01:03:53.377Z,12.6
2018-07-03T01:04:13.516Z,12.6
2018-07-03T01:04:33.676Z,12.5
2018-07-03T01:04:53.942Z,12.6
2018-07-03T01:05:14.098Z,12.6
2018-07-03T01:05:34.247Z,12.6
2018-07-03T01:05:54.398Z,12.5
2018-07-03T01:06:14.552Z,12.5
2018-07-03T01:06:34.704Z,12.5
2018-07-03T01:06:54.869Z,12.5
2018-07-03T01:07:15.013Z,12.5
2018-07-03T01:07:35.180Z,12.5
2018-07-03T01:07:55.318Z,12.6
2018-07-03T01:08:15.442Z,12.5
2018-07-03T01:08:35.601Z,12.5
2018-07-03T01:08:55.763Z,12.5
2018-07-03T01:09:15.912Z,12.5
2018-07-03T01:09:36.087Z,12.5
2018-07-03T01:09:56.215Z,12.5
2018-07-03T01:10:16.363Z,12.5
2018-07-03T01:10:36.540Z,12.5
2018-07-03T01:10:56.682Z,12.5
2018-07-03T01:11:16.815Z,12.5
2018-07-03T01:11:36.972Z,12.5
2018-07-03T01:11:57.134Z,12.4
2018-07-03T01:12:17.296Z,12.4
2018-07-03T01:12:37.433Z,12.4
2018-07-03T01:12:57.588Z,12.5
2018-07-03T01:13:17.745Z,12.4
2018-07-03T01:13:37.931Z,12.4
2018-07-03T01:13:58.085Z,12.4
2018-07-03T01:14:18.265Z,12.4
2018-07-03T01:14:38.420Z,12.5
2018-07-03T01:14:58.610Z,12.3
2018-07-03T01:15:18.766Z,12.3
2018-07-03T01:15:38.915Z,12.4
2018-07-03T01:15:59.075Z,12.4
2018-07-03T01:16:19.242Z,12.4
2018-07-03T01:16:39.404Z,12.3
2018-07-03T01:16:59.539Z,12.4
2018-07-03T01:17:19.703Z,12.3
2018-07-03T01:17:39.851Z,12.4
2018-07-03T01:18:00.037Z,12.4
2018-07-03T01:18:20.191Z,12.3
2018-07-03T01:18:40.340Z,12.3
2018-07-03T01:19:00.504Z,12.3
2018-07-03T01:19:20.664Z,12.4
2018-07-03T01:19:40.799Z,12.3
2018-07-03T01:20:00.940Z,12.3
2018-07-03T01:20:21.084Z,12.2
2018-07-03T01:20:41.245Z,12.3
2018-07-03T01:21:01.407Z,12.3
2018-07-03T01:21:21.652Z,12.2
2018-07-03T01:21:41.798Z,12.3
2018-07-03T01:22:01.992Z,12.3
2018-07-03T01:22:22.126Z,12.3
2018-07-03T01:22:42.295Z,12.3
2018-07-03T01:23:02.409Z,12.3
2018-07-03T01:23:22.568Z,12.3
2018-07-03T01:23:42.734Z,12.3
2018-07-03T01:24:02.895Z,12.3
2018-07-03T01:24:23.058Z,12.3
2018-07-03T01:24:43.221Z,12.3
2018-07-03T01:25:03.408Z,12.3
2018-07-03T01:25:23.551Z,12.3
2018-07-03T01:25:43.721Z,12.3
2018-07-03T01:26:03.881Z,12.3
2018-07-03T01:26:24.033Z,12.3
2018-07-03T01:26:44.181Z,12.2
2018-07-03T01:27:04.330Z,12.3
2018-07-03T01:27:24.467Z,12.2
2018-07-03T01:27:44.630Z,12.2
2018-07-03T01:28:04.817Z,12.2
2018-07-03T01:28:24.969Z,12.2
2018-07-03T01:28:45.118Z,12.2
2018-07-03T01:29:05.272Z,12.2
2018-07-03T01:29:25.430Z,12.2
2018-07-03T01:29:45.577Z,12.2
2018-07-03T01:30:05.730Z,12.2
2018-07-03T01:30:25.894Z,12.3
2018-07-03T01:30:46.012Z,12.2
2018-07-03T01:31:06.145Z,12.3
2018-07-03T01:31:26.309Z,12.2
2018-07-03T01:31:46.467Z,12.2
2018-07-03T01:32:06.608Z,12.2
2018-07-03T01:32:26.726Z,12.2
2018-07-03T01:32:46.846Z,12.2
2018-07-03T01:33:06.995Z,12.1
2018-07-03T01:33:27.136Z,12
2018-07-03T01:33:47.286Z,12.1
2018-07-03T01:34:07.424Z,12.2
2018-07-03T01:34:27.594Z,12.2
2018-07-03T01:34:47.744Z,12.1
2018-07-03T01:35:07.917Z,12
2018-07-03T01:35:28.081Z,12
2018-07-03T01:35:48.227Z,12
2018-07-03T01:36:08.362Z,12.1
2018-07-03T01:36:28.520Z,12.1
2018-07-03T01:36:48.681Z,12.1
2018-07-03T01:37:08.837Z,12
2018-07-03T01:37:28.987Z,12.1
2018-07-03T01:37:49.135Z,12
2018-07-03T01:38:09.289Z,12.1
2018-07-03T01:38:29.449Z,12.1
2018-07-03T01:38:49.590Z,12
2018-07-03T01:39:09.749Z,12
2018-07-03T01:39:29.917Z,12
2018-07-03T01:39:50.112Z,12.1
2018-07-03T01:40:10.246Z,12
2018-07-03T01:40:30.423Z,12
2018-07-03T01:40:50.583Z,12
2018-07-03T01:41:10.757Z,12
2018-07-03T01:41:30.896Z,12
2018-07-03T01:41:51.059Z,11.9
2018-07-03T01:42:11.264Z,11.9
2018-07-03T01:42:31.433Z,11.9
2018-07-03T01:42:51.612Z,11.9
2018-07-03T01:43:11.768Z,11.9
2018-07-03T01:43:31.923Z,11.9
2018-07-03T01:43:52.097Z,11.9
2018-07-03T01:44:12.259Z,11.9
2018-07-03T01:44:32.434Z,11.8
2018-07-03T01:44:52.610Z,12
2018-07-03T01:45:12.744Z,11.9
2018-07-03T01:45:32.903Z,11.9
2018-07-03T01:45:53.062Z,11.9
2018-07-03T01:46:13.232Z,11.9
2018-07-03T01:46:33.380Z,11.9
2018-07-03T01:46:53.571Z,11.8
2018-07-03T01:47:13.717Z,11.9
2018-07-03T01:47:33.911Z,11.9
2018-07-03T01:47:54.075Z,11.9
2018-07-03T01:48:14.202Z,11.9
2018-07-03T01:48:34.367Z,11.9
2018-07-03T01:48:54.541Z,11.9
2018-07-03T01:49:14.708Z,11.9
2018-07-03T01:49:34.864Z,11.8
2018-07-03T01:49:55.000Z,11.9
2018-07-03T01:50:15.167Z,11.8
2018-07-03T01:50:35.370Z,11.8
2018-07-03T01:50:55.531Z,11.8
2018-07-03T01:51:15.684Z,11.8
2018-07-03T01:51:35.859Z,11.8
2018-07-03T01:51:56.020Z,11.9
2018-07-03T01:52:16.151Z,11.8
2018-07-03T01:52:36.313Z,11.8
2018-07-03T01:52:56.470Z,11.8
2018-07-03T01:53:16.603Z,11.8
2018-07-03T01:53:36.739Z,11.8
2018-07-03T01:53:56.885Z,11.8
2018-07-03T01:54:17.043Z,11.8
2018-07-03T01:54:37.202Z,11.8
2018-07-03T01:54:57.348Z,11.9
2018-07-03T01:55:17.513Z,11.8
2018-07-03T01:55:37.660Z,11.8
2018-07-03T01:55:57.816Z,11.8
2018-07-03T01:56:18.007Z,11.8
2018-07-03T01:56:38.159Z,11.8
2018-07-03T01:56:58.321Z,11.8
2018-07-03T01:57:18.504Z,11.8
2018-07-03T01:57:38.752Z,11.8
2018-07-03T01:57:58.902Z,11.8
2018-07-03T01:58:19.041Z,11.9
2018-07-03T01:58:39.191Z,11.8
2018-07-03T01:58:59.329Z,11.8
2018-07-03T01:59:19.475Z,11.8
2018-07-03T01:59:39.607Z,11.8
2018-07-03T01:59:59.778Z,11.7
2018-07-03T02:00:19.928Z,11.8
2018-07-03T02:00:40.093Z,11.8
2018-07-03T02:01:00.273Z,11.7
2018-07-03T02:01:20.464Z,11.7
2018-07-03T02:01:40.574Z,11.7
2018-07-03T02:02:00.786Z,11.7
2018-07-03T02:02:20.944Z,11.7
2018-07-03T02:02:41.119Z,11.6
2018-07-03T02:03:01.268Z,11.7
2018-07-03T02:03:21.420Z,11.7
2018-07-03T02:03:41.616Z,11.6
2018-07-03T02:04:01.764Z,11.6
2018-07-03T02:04:21.977Z,11.7
2018-07-03T02:04:42.133Z,11.7
2018-07-03T02:05:02.290Z,11.8
2018-07-03T02:05:22.454Z,11.6
2018-07-03T02:05:42.662Z,11.6
2018-07-03T02:06:02.822Z,11.6
2018-07-03T02:06:23.001Z,11.7
2018-07-03T02:06:43.193Z,11.8
2018-07-03T02:07:03.388Z,11.7
2018-07-03T02:07:23.561Z,11.7
2018-07-03T02:07:43.705Z,11.7
2018-07-03T02:08:03.861Z,11.7
2018-07-03T02:08:24.044Z,11.7
2018-07-03T02:08:44.192Z,11.7
2018-07-03T02:09:04.377Z,11.6
2018-07-03T02:09:24.541Z,11.8
2018-07-03T02:09:44.779Z,11.7
2018-07-03T02:10:04.912Z,11.7
2018-07-03T02:10:25.053Z,11.8
2018-07-03T02:10:45.241Z,11.7
2018-07-03T02:11:05.413Z,11.7
2018-07-03T02:11:25.561Z,11.6
2018-07-03T02:11:45.716Z,11.7
2018-07-03T02:12:05.842Z,11.7
2018-07-03T02:12:25.995Z,11.6
2018-07-03T02:12:46.147Z,11.7
2018-07-03T02:13:06.345Z,11.8
2018-07-03T02:13:26.467Z,11.7
2018-07-03T02:13:46.618Z,11.6
2018-07-03T02:14:06.772Z,11.7
2018-07-03T02:14:26.917Z,11.7
2018-07-03T02:14:47.055Z,11.7
2018-07-03T02:15:07.223Z,11.6
2018-07-03T02:15:27.358Z,11.7
2018-07-03T02:15:47.489Z,11.8
2018-07-03T02:16:07.632Z,11.7
2018-07-03T02:16:27.757Z,11.7
2018-07-03T02:16:47.939Z,11.6
2018-07-03T02:17:08.073Z,11.8
2018-07-03T02:17:28.239Z,11.7
2018-07-03T02:17:48.433Z,11.7
2018-07-03T02:18:08.583Z,11.7
2018-07-03T02:18:28.772Z,11.7
2018-07-03T02:18:48.930Z,11.6
2018-07-03T02:19:09.075Z,11.6
2018-07-03T02:19:29.211Z,11.6
2018-07-03T02:19:49.393Z,11.6
2018-07-03T02:20:09.560Z,11.6
2018-07-03T02:20:29.714Z,11.6
2018-07-03T02:20:49.858Z,11.6
2018-07-03T02:21:10.030Z,11.6
2018-07-03T02:21:30.168Z,11.6
2018-07-03T02:21:50.326Z,11.6
2018-07-03T02:22:10.489Z,11.5
2018-07-03T02:22:30.653Z,11.6
2018-07-03T02:22:50.826Z,11.6
2018-07-03T02:23:11.009Z,11.6
2018-07-03T02:23:31.152Z,11.6
2018-07-03T02:23:51.450Z,11.6
2018-07-03T02:24:11.610Z,11.6
2018-07-03T02:24:31.776Z,11.6
2018-07-03T02:24:51.958Z,11.6
2018-07-03T02:25:12.114Z,11.6
2018-07-03T02:25:32.292Z,11.6
2018-07-03T02:25:52.423Z,11.6
2018-07-03T02:26:12.568Z,11.6
2018-07-03T02:26:32.727Z,11.6
2018-07-03T02:26:52.894Z,11.5
2018-07-03T02:27:13.068Z,11.6
2018-07-03T02:27:33.202Z,11.5
2018-07-03T02:27:53.371Z,11.5
2018-07-03T02:28:13.527Z,11.5
2018-07-03T02:28:33.700Z,11.5
2018-07-03T02:28:53.900Z,11.5
2018-07-03T02:29:14.059Z,11.6
2018-07-03T02:29:34.193Z,11.5
2018-07-03T02:29:54.343Z,11.5
2018-07-03T02:30:14.517Z,11.5
2018-07-03T02:30:34.675Z,11.6
2018-07-03T02:30:54.863Z,11.6
2018-07-03T02:31:15.053Z,11.5
2018-07-03T02:31:35.227Z,11.6
2018-07-03T02:31:55.388Z,11.5
2018-07-03T02:32:15.546Z,11.5
2018-07-03T02:32:35.726Z,11.4
2018-07-03T02:32:55.894Z,11.4
2018-07-03T02:33:16.040Z,11.4
2018-07-03T02:33:36.204Z,11.4
2018-07-03T02:33:56.356Z,11.4
2018-07-03T02:34:16.570Z,11.4
2018-07-03T02:34:36.677Z,11.4
2018-07-03T02:34:56.882Z,11.5
2018-07-03T02:35:17.016Z,11.5
2018-07-03T02:35:37.204Z,11.4
2018-07-03T02:35:57.364Z,11.4
2018-07-03T02:36:17.535Z,11.4
2018-07-03T02:36:37.702Z,11.4
2018-07-03T02:36:57.901Z,11.4
2018-07-03T02:37:18.093Z,11.4
2018-07-03T02:37:38.246Z,11.4
2018-07-03T02:37:58.416Z,11.4
2018-07-03T02:38:18.558Z,11.4
2018-07-03T02:38:38.719Z,11.3
2018-07-03T02:38:58.926Z,11.4
2018-07-03T02:39:19.096Z,11.3
2018-07-03T02:39:39.257Z,11.3
2018-07-03T02:39:59.405Z,11.3
2018-07-03T02:40:19.547Z,11.3
2018-07-03T02:40:39.739Z,11.3
2018-07-03T02:40:59.909Z,11.2
2018-07-03T02:41:20.067Z,11.3
2018-07-03T02:41:40.205Z,11.3
2018-07-03T02:42:00.392Z,11.3
2018-07-03T02:42:20.590Z,11.3
2018-07-03T02:42:40.730Z,11.3
2018-07-03T02:43:00.879Z,11.2
2018-07-03T02:43:21.021Z,11.3
2018-07-03T02:43:41.175Z,11.2
2018-07-03T02:44:01.350Z,11.3
2018-07-03T02:44:21.484Z,11.2
2018-07-03T02:44:41.656Z,11.1
2018-07-03T02:45:01.793Z,11.1
2018-07-03T02:45:21.937Z,11.1
2018-07-03T02:45:42.108Z,11
2018-07-03T02:46:02.293Z,11.1
2018-07-03T02:46:22.529Z,11.1
2018-07-03T02:46:42.844Z,11.1
2018-07-03T02:47:03.041Z,11
2018-07-03T02:47:23.234Z,11.1
2018-07-03T02:47:43.421Z,11.1
2018-07-03T02:48:03.673Z,11.1
2018-07-03T02:48:23.951Z,11
2018-07-03T02:48:44.193Z,11.1
2018-07-03T02:49:04.526Z,11.1
2018-07-03T02:49:24.787Z,11.1
2018-07-03T02:49:44.966Z,11
2018-07-03T02:50:05.150Z,11
2018-07-03T02:50:25.358Z,11.1
2018-07-03T02:50:45.635Z,11.1
2018-07-03T02:51:05.785Z,11.1
2018-07-03T02:51:25.935Z,11.1
2018-07-03T02:51:46.139Z,11
2018-07-03T02:52:06.321Z,11.1
2018-07-03T02:52:26.531Z,11.1
2018-07-03T02:52:46.688Z,11.1
2018-07-03T02:53:06.827Z,11
2018-07-03T02:53:26.993Z,11.1
2018-07-03T02:53:47.169Z,11.1
2018-07-03T02:54:07.323Z,11.1
2018-07-03T02:54:27.488Z,11.1
2018-07-03T02:54:47.604Z,11.1
2018-07-03T02:55:07.728Z,11
2018-07-03T02:55:27.923Z,11.2
2018-07-03T02:55:48.071Z,11
2018-07-03T02:56:08.241Z,11
2018-07-03T02:56:28.448Z,11
2018-07-03T02:56:48.653Z,11.1
2018-07-03T02:57:08.808Z,11.1
2018-07-03T02:57:29.000Z,11.1
2018-07-03T02:57:49.199Z,11.1
2018-07-03T02:58:09.384Z,11.1
2018-07-03T02:58:29.558Z,11
2018-07-03T02:58:49.711Z,11.1
2018-07-03T02:59:09.937Z,11.1
2018-07-03T02:59:30.087Z,11.1
2018-07-03T02:59:50.275Z,11.1
2018-07-03T03:00:10.435Z,11.1
2018-07-03T03:00:30.653Z,11.2
2018-07-03T03:00:50.789Z,11.1
2018-07-03T03:01:10.989Z,11.1
2018-07-03T03:01:31.137Z,11.1
2018-07-03T03:01:51.297Z,11.1
2018-07-03T03:02:11.467Z,11.1
2018-07-03T03:02:31.658Z,11
2018-07-03T03:02:51.840Z,11.2
2018-07-03T03:03:12.034Z,11.1
2018-07-03T03:03:32.166Z,11.1
2018-07-03T03:03:52.311Z,11.1
2018-07-03T03:04:12.468Z,11.1
2018-07-03T03:04:32.626Z,11.1
2018-07-03T03:04:52.814Z,11.1
2018-07-03T03:05:12.980Z,11.1
2018-07-03T03:05:33.138Z,11.1
2018-07-03T03:05:53.298Z,11.1
2018-07-03T03:06:13.469Z,11.1
2018-07-03T03:06:33.625Z,11.1
2018-07-03T03:06:53.866Z,11.1
2018-07-03T03:07:13.998Z,11.1
2018-07-03T03:07:34.170Z,11.1
2018-07-03T03:07:54.325Z,11.1
2018-07-03T03:08:14.502Z,11.1
2018-07-03T03:08:34.734Z,11.1
2018-07-03T03:08:54.901Z,11.1
2018-07-03T03:09:15.058Z,11
2018-07-03T03:09:35.223Z,11.1
2018-07-03T03:09:55.378Z,11
2018-07-03T03:10:15.541Z,11
2018-07-03T03:10:35.691Z,11.1
2018-07-03T03:10:55.889Z,11.1
2018-07-03T03:11:16.032Z,11.1
2018-07-03T03:11:36.200Z,11.1
2018-07-03T03:11:56.370Z,11.1
2018-07-03T03:12:16.512Z,11
2018-07-03T03:12:36.659Z,11.1
2018-07-03T03:12:56.822Z,11
2018-07-03T03:13:17.000Z,11.1
2018-07-03T03:13:37.173Z,11.1
2018-07-03T03:13:57.327Z,11.1
2018-07-03T03:14:17.502Z,11.1
2018-07-03T03:14:37.673Z,11.1
2018-07-03T03:14:57.848Z,11.1
2018-07-03T03:15:18.000Z,11.2
2018-07-03T03:15:38.188Z,11.1
2018-07-03T03:15:58.310Z,11.2
2018-07-03T03:16:18.462Z,11.1
2018-07-03T03:16:38.632Z,11.1
2018-07-03T03:16:58.829Z,11
2018-07-03T03:17:19.004Z,11.2
2018-07-03T03:17:39.183Z,11.1
2018-07-03T03:17:59.358Z,11.1
2018-07-03T03:18:19.524Z,11.1
2018-07-03T03:18:39.692Z,11.2
2018-07-03T03:18:59.853Z,11.2
2018-07-03T03:19:19.989Z,11.2
2018-07-03T03:19:40.124Z,11.2
2018-07-03T03:20:00.311Z,11.1
2018-07-03T03:20:20.501Z,11.2
2018-07-03T03:20:40.671Z,11.2
2018-07-03T03:21:00.868Z,11.1
2018-07-03T03:21:21.028Z,11.1
2018-07-03T03:21:41.200Z,11.1
2018-07-03T03:22:01.355Z,11.2
2018-07-03T03:22:21.538Z,11.2
2018-07-03T03:22:41.790Z,11.2
2018-07-03T03:23:01.986Z,11.2
2018-07-03T03:23:22.142Z,11.2
2018-07-03T03:23:42.304Z,11.2
2018-07-03T03:24:02.455Z,11.2
2018-07-03T03:24:22.613Z,11.2
2018-07-03T03:24:42.773Z,11.2
2018-07-03T03:25:02.948Z,11.3
2018-07-03T03:25:23.149Z,11.2
2018-07-03T03:25:43.307Z,11.2
2018-07-03T03:26:03.470Z,11.2
2018-07-03T03:26:23.603Z,11.2
2018-07-03T03:26:43.795Z,11.2
2018-07-03T03:27:04.004Z,11.3
2018-07-03T03:27:24.167Z,11.3
2018-07-03T03:27:44.393Z,11.3
2018-07-03T03:28:04.551Z,11.3
2018-07-03T03:28:24.677Z,11.3
2018-07-03T03:28:44.838Z,11.3
2018-07-03T03:29:05.107Z,11.3
2018-07-03T03:29:25.338Z,11.3
2018-07-03T03:29:46.254Z,11.3
2018-07-03T03:30:06.380Z,11.3
2018-07-03T03:30:26.563Z,11.3
2018-07-03T03:30:46.733Z,11.3
2018-07-03T03:31:06.873Z,11.3
2018-07-03T03:31:27.056Z,11.3
2018-07-03T03:31:47.249Z,11.4
2018-07-03T03:32:07.413Z,11.3
2018-07-03T03:32:27.559Z,11.4
2018-07-03T03:32:47.676Z,11.3
2018-07-03T03:33:07.841Z,11.4
2018-07-03T03:33:27.990Z,11.3
2018-07-03T03:33:48.147Z,11.4
2018-07-03T03:34:08.351Z,11.5
2018-07-03T03:34:28.596Z,11.3
2018-07-03T03:34:48.750Z,11.4
2018-07-03T03:35:08.914Z,11.4
2018-07-03T03:35:29.057Z,11.4
2018-07-03T03:35:49.212Z,11.4
2018-07-03T03:36:09.393Z,11.5
2018-07-03T03:36:29.600Z,11.4
2018-07-03T03:36:49.819Z,11.4
2018-07-03T03:37:10.031Z,11.4
2018-07-03T03:37:30.241Z,11.4
2018-07-03T03:37:50.411Z,11.4
2018-07-03T03:38:10.596Z,11.4
2018-07-03T03:38:30.802Z,11.4
2018-07-03T03:38:50.975Z,11.3
2018-07-03T03:39:11.165Z,11.3
2018-07-03T03:39:31.381Z,11.3
2018-07-03T03:39:51.608Z,11.4
2018-07-03T03:40:11.841Z,11.4
2018-07-03T03:40:32.072Z,11.4
2018-07-03T03:40:52.315Z,11.5
2018-07-03T03:41:12.511Z,11.4
2018-07-03T03:41:32.758Z,11.3
2018-07-03T03:41:53.008Z,11.4
2018-07-03T03:42:13.156Z,11.4
2018-07-03T03:42:33.362Z,11.5
2018-07-03T03:42:53.525Z,11.4
2018-07-03T03:43:13.773Z,11.4
2018-07-03T03:43:34.021Z,11.4
2018-07-03T03:43:54.223Z,11.4
2018-07-03T03:44:14.390Z,11.4
2018-07-03T03:44:34.718Z,11.5
2018-07-03T03:44:55.049Z,11.4
2018-07-03T03:45:15.225Z,11.4
2018-07-03T03:45:35.415Z,11.5
2018-07-03T03:45:55.753Z,11.4
2018-07-03T03:46:15.870Z,11.4
2018-07-03T03:46:36.214Z,11.4
2018-07-03T03:46:56.477Z,11.5
2018-07-03T03:47:16.710Z,11.5
2018-07-03T03:47:36.922Z,11.6
2018-07-03T03:47:57.128Z,11.6
2018-07-03T03:48:17.341Z,11.5
2018-07-03T03:48:38.438Z,11.6
2018-07-03T03:48:58.573Z,11.7
2018-07-03T03:49:18.824Z,11.6
2018-07-03T03:49:38.979Z,11.5
2018-07-03T03:49:59.133Z,11.5
2018-07-03T03:50:19.287Z,11.6
2018-07-03T03:50:39.383Z,11.5
2018-07-03T03:50:59.569Z,11.5
2018-07-03T03:51:19.913Z,11.7
2018-07-03T03:51:40.260Z,11.6
2018-07-03T03:52:00.451Z,11.6
2018-07-03T03:52:20.634Z,11.6
2018-07-03T03:52:40.819Z,11.5
2018-07-03T03:53:01.436Z,11.6
2018-07-03T03:54:43.677Z,11.6
2018-07-03T03:55:03.837Z,11.6
2018-07-03T03:55:24.071Z,11.6
2018-07-03T03:55:44.293Z,11.7
2018-07-03T03:56:04.420Z,11.7
2018-07-03T03:56:24.665Z,11.6
2018-07-03T03:56:44.940Z,11.6
2018-07-03T03:57:06.002Z,11.6
2018-07-03T03:57:26.347Z,11.6
2018-07-03T03:57:46.549Z,11.6
2018-07-03T03:58:06.784Z,11.6
2018-07-03T03:58:26.959Z,11.6
2018-07-03T03:58:47.341Z,11.6
2018-07-03T03:59:07.495Z,11.6
2018-07-03T03:59:27.670Z,11.6
2018-07-03T03:59:47.899Z,11.5
2018-07-03T04:00:08.102Z,11.6
2018-07-03T04:00:28.415Z,11.6
2018-07-03T04:00:48.808Z,11.6
2018-07-03T04:01:09.110Z,11.5
2018-07-03T04:01:29.271Z,11.6
2018-07-03T04:01:49.561Z,11.6
2018-07-03T04:02:09.808Z,11.7
2018-07-03T04:02:30.065Z,11.6
2018-07-03T04:02:50.219Z,11.6
2018-07-03T04:03:10.485Z,11.6
2018-07-03T04:03:30.660Z,11.6
2018-07-03T04:03:50.881Z,11.7
2018-07-03T04:04:11.077Z,11.7
2018-07-03T04:04:32.004Z,11.6
2018-07-03T04:04:52.155Z,11.7
2018-07-03T04:05:12.326Z,11.7
2018-07-03T04:05:32.508Z,11.7
2018-07-03T04:05:52.641Z,11.7
2018-07-03T04:06:12.850Z,11.6
2018-07-03T04:06:32.976Z,11.7
2018-07-03T04:06:53.996Z,11.8
2018-07-03T04:07:14.220Z,11.8
2018-07-03T04:07:34.372Z,11.7
2018-07-03T04:07:54.540Z,11.7
2018-07-03T04:08:14.729Z,11.8
2018-07-03T04:08:34.927Z,11.7
2018-07-03T04:08:55.205Z,11.7
2018-07-03T04:34:40.309Z,12.2
2018-07-03T04:35:00.523Z,12.2
2018-07-03T04:35:20.732Z,12.2
2018-07-03T04:35:40.875Z,12.2
2018-07-03T04:36:01.074Z,12.1
2018-07-03T04:36:21.226Z,12.2
2018-07-03T04:36:41.386Z,12.2
2018-07-03T04:37:01.562Z,12.1
2018-07-03T04:37:21.725Z,12.2
2018-07-03T04:37:41.909Z,12.2
2018-07-03T04:38:02.073Z,12.2
2018-07-03T04:38:22.203Z,12.2
2018-07-03T04:38:42.339Z,12.2
2018-07-03T04:39:02.500Z,12.2
2018-07-03T04:39:22.705Z,12.2
2018-07-03T04:39:42.838Z,12.2
2018-07-03T04:40:02.982Z,12.3
2018-07-03T04:40:23.172Z,12.3
2018-07-03T04:40:43.428Z,12.3
2018-07-03T04:41:03.656Z,12.3
2018-07-03T04:41:23.901Z,12.3
2018-07-03T04:41:44.035Z,12.3
2018-07-03T04:42:04.250Z,12.3
2018-07-03T04:42:24.435Z,12.3
2018-07-03T04:42:44.722Z,12.3
2018-07-03T04:43:04.906Z,12.3
2018-07-03T04:43:25.082Z,12.4
2018-07-03T04:43:45.215Z,12.3
2018-07-03T04:44:05.384Z,12.3
2018-07-03T04:44:25.548Z,12.4
2018-07-03T04:44:45.749Z,12.3
2018-07-03T04:45:05.942Z,12.3
2018-07-03T04:45:26.191Z,12.4
2018-07-03T04:45:46.356Z,12.3
2018-07-03T04:46:06.519Z,12.3
2018-07-03T04:46:26.683Z,12.4
2018-07-03T04:46:46.946Z,12.3
2018-07-03T04:47:07.159Z,12.4
2018-07-03T04:47:27.347Z,12.3
2018-07-03T04:47:47.603Z,12.3
2018-07-03T05:09:37.090Z,12.8
2018-07-03T05:09:57.275Z,12.8
2018-07-03T05:10:17.513Z,12.9
2018-07-03T05:10:37.655Z,12.9
2018-07-03T05:10:57.845Z,12.9
2018-07-03T05:11:18.000Z,12.9
2018-07-03T05:11:38.182Z,12.9
2018-07-03T05:11:58.418Z,12.9
2018-07-03T05:26:47.754Z,13.6
2018-07-03T05:27:08.004Z,13.5
2018-07-03T05:27:28.215Z,13.6
2018-07-03T05:27:48.375Z,13.5
2018-07-03T05:28:08.582Z,13.5
2018-07-03T05:28:28.765Z,13.4
2018-07-03T05:28:49.059Z,13.5
2018-07-03T05:29:09.211Z,13.5
2018-07-03T05:29:29.371Z,13.5
2018-07-03T05:29:49.550Z,13.5
2018-07-03T05:42:06.713Z,14
2018-07-03T05:42:26.935Z,13.8
2018-07-03T05:42:47.234Z,13.9
2018-07-03T05:43:07.483Z,13.8
2018-07-03T05:43:27.660Z,13.9
2018-07-03T05:43:47.867Z,13.9
2018-07-03T05:44:08.059Z,13.9
2018-07-03T05:44:28.217Z,13.9
2018-07-03T05:44:48.365Z,13.9
2018-07-03T05:45:08.528Z,13.9
2018-07-03T05:45:28.692Z,13.9